createdAt,value
2023-03-18T00:00:02.416Z,980
2023-03-18T00:02:03.542Z,979.9
2023-03-18T00:04:05.417Z,979.9
2023-03-18T00:06:06.758Z,980
2023-03-18T00:08:08.289Z,979.9
2023-03-18T00:10:10.224Z,979.9
2023-03-18T00:12:12.074Z,979.9
2023-03-18T00:16:14.651Z,979.9
2023-03-18T00:18:15.625Z,980
2023-03-18T00:20:17.415Z,980
2023-03-18T00:22:19.022Z,980
2023-03-18T00:24:20.252Z,980.2
2023-03-18T00:26:21.915Z,980.2
2023-03-18T00:28:23.462Z,980.1
2023-03-18T00:30:25.054Z,980.2
2023-03-18T00:32:26.393Z,980.2
2023-03-18T00:34:27.383Z,980.3
2023-03-18T00:36:29.321Z,980.3
2023-03-18T00:38:30.585Z,980.4
2023-03-18T00:40:31.911Z,980.4
2023-03-18T00:42:33.062Z,980.4
2023-03-18T00:44:35.021Z,980.4
2023-03-18T00:46:36.988Z,980.3
2023-03-18T00:48:38.746Z,980.2
2023-03-18T00:50:39.791Z,980.4
2023-03-18T00:52:41.124Z,980.3
2023-03-18T00:54:42.601Z,980.3
2023-03-18T00:56:43.718Z,980.3
2023-03-18T00:58:45.608Z,980.3
2023-03-18T01:00:46.690Z,980.4
2023-03-18T01:02:48.145Z,980.3
2023-03-18T01:04:50.007Z,980.3
2023-03-18T01:06:51.735Z,980.3
2023-03-18T01:08:53.464Z,980.3
2023-03-18T01:10:55.332Z,980.3
2023-03-18T01:12:57.189Z,980.2
2023-03-18T01:14:58.436Z,980.4
2023-03-18T01:17:00.293Z,980.2
2023-03-18T01:19:01.843Z,980.3
2023-03-18T01:21:03.417Z,980.3
2023-03-18T01:23:05.267Z,980.3
2023-03-18T01:25:06.875Z,980.2
2023-03-18T01:27:08.297Z,980.3
2023-03-18T01:29:10.188Z,980.3
2023-03-18T01:31:11.585Z,980.3
2023-03-18T01:33:13.429Z,980.3
2023-03-18T01:35:15.013Z,980.2
2023-03-18T01:37:16.487Z,980.3
2023-03-18T01:39:17.897Z,980.3
2023-03-18T01:41:19.597Z,980.3
2023-03-18T01:43:21.103Z,980.4
2023-03-18T01:45:22.933Z,980.4
2023-03-18T01:47:24.366Z,980.4
2023-03-18T01:49:26.196Z,980.3
2023-03-18T01:51:27.782Z,980.4
2023-03-18T01:53:28.996Z,980.3
2023-03-18T01:55:30.707Z,980.3
2023-03-18T01:57:32.535Z,980.3
2023-03-18T01:59:33.826Z,980.3
2023-03-18T02:01:35.333Z,980.4
2023-03-18T02:03:36.612Z,980.3
2023-03-18T02:05:37.800Z,980.3
2023-03-18T02:07:39.541Z,980.3
2023-03-18T02:09:40.688Z,980.3
2023-03-18T02:11:42.106Z,980.3
2023-03-18T02:13:43.308Z,980.3
2023-03-18T02:15:45.140Z,980.3
2023-03-18T02:17:46.982Z,980.3
2023-03-18T02:19:48.036Z,980.3
2023-03-18T02:21:49.691Z,980.3
2023-03-18T02:23:51.376Z,980.4
2023-03-18T02:25:52.695Z,980.4
2023-03-18T02:27:53.868Z,980.5
2023-03-18T02:29:55.509Z,980.5
2023-03-18T02:31:56.783Z,980.5
2023-03-18T02:33:58.492Z,980.5
2023-03-18T02:36:00.310Z,980.5
2023-03-18T02:40:03.286Z,980.5
2023-03-18T02:42:05.096Z,980.5
2023-03-18T02:44:06.275Z,980.5
2023-03-18T02:46:07.967Z,980.5
2023-03-18T02:48:09.280Z,980.4
2023-03-18T02:50:11.198Z,980.5
2023-03-18T02:52:12.699Z,980.5
2023-03-18T02:54:14.587Z,980.6
2023-03-18T02:56:16.246Z,980.6
2023-03-18T02:58:17.924Z,980.7
2023-03-18T03:00:19.646Z,980.5
2023-03-18T03:02:21.037Z,980.5
2023-03-18T03:06:24.057Z,980.6
2023-03-18T03:08:25.991Z,980.6
2023-03-18T03:10:27.344Z,980.5
2023-03-18T03:12:28.306Z,980.6
2023-03-18T03:14:29.681Z,980.5
2023-03-18T03:16:31.243Z,980.6
2023-03-18T03:18:32.472Z,980.6
2023-03-18T03:20:34.291Z,980.6
2023-03-18T03:22:35.757Z,980.6
2023-03-18T03:24:37.399Z,980.5
2023-03-18T03:26:38.893Z,980.5
2023-03-18T03:28:40.330Z,980.6
2023-03-18T03:30:42.191Z,980.7
2023-03-18T03:32:43.474Z,980.6
2023-03-18T03:34:44.391Z,980.7
2023-03-18T03:36:46.010Z,980.7
2023-03-18T03:38:47.372Z,980.7
2023-03-18T03:40:48.996Z,980.7
2023-03-18T03:42:50.888Z,980.7
2023-03-18T03:44:52.332Z,980.7
2023-03-18T03:48:54.863Z,980.7
2023-03-18T03:50:55.905Z,980.7
2023-03-18T03:52:57.526Z,980.8
2023-03-18T03:54:59.356Z,980.7
2023-03-18T03:59:02.895Z,980.8
2023-03-18T04:01:04.098Z,980.9
2023-03-18T04:03:05.806Z,980.9
2023-03-18T04:05:06.928Z,981
2023-03-18T04:07:08.084Z,980.9
2023-03-18T04:09:09.789Z,981
2023-03-18T04:11:11.693Z,980.9
2023-03-18T04:13:13.367Z,980.9
2023-03-18T04:15:14.584Z,981
2023-03-18T04:17:16.470Z,981
2023-03-18T04:19:18.061Z,981
2023-03-18T04:21:19.549Z,981
2023-03-18T04:23:20.989Z,981
2023-03-18T04:25:22.645Z,980.9
2023-03-18T04:27:24.494Z,981
2023-03-18T04:28:08.342Z,981
2023-03-18T04:30:09.913Z,981
2023-03-18T04:32:11.368Z,981
2023-03-18T04:34:13.266Z,981
2023-03-18T04:36:15.035Z,980.9
2023-03-18T04:38:16.283Z,981
2023-03-18T04:42:19.475Z,981
2023-03-18T04:44:21.441Z,981
2023-03-18T04:46:23.329Z,981
2023-03-18T04:48:25.001Z,981.1
2023-03-18T04:50:26.239Z,981.1
2023-03-18T04:52:27.364Z,981.1
2023-03-18T04:54:28.373Z,981
2023-03-18T04:56:29.476Z,981
2023-03-18T04:58:30.948Z,981.1
2023-03-18T05:00:32.169Z,981
2023-03-18T05:02:33.318Z,981.1
2023-03-18T05:04:34.686Z,981
2023-03-18T05:06:36.181Z,981.1
2023-03-18T05:08:37.233Z,981.1
2023-03-18T05:10:38.228Z,981.1
2023-03-18T05:12:39.932Z,981.1
2023-03-18T05:14:40.951Z,981.2
2023-03-18T05:16:42.945Z,981.2
2023-03-18T05:18:44.528Z,981.1
2023-03-18T05:20:45.789Z,981.2
2023-03-18T05:22:47.562Z,981.2
2023-03-18T05:24:48.738Z,981.1
2023-03-18T05:26:50.672Z,981.2
2023-03-18T05:28:52.146Z,981.1
2023-03-18T05:30:53.406Z,981.1
2023-03-18T05:32:54.694Z,981.1
2023-03-18T05:34:56.147Z,981.2
2023-03-18T05:36:57.279Z,981.2
2023-03-18T05:41:00.658Z,981.2
2023-03-18T05:43:01.932Z,981.2
2023-03-18T05:45:03.227Z,981.2
2023-03-18T05:47:04.348Z,981.2
2023-03-18T05:49:05.416Z,981.2
2023-03-18T05:51:07.327Z,981.3
2023-03-18T05:53:09.130Z,981.2
2023-03-18T05:55:10.148Z,981.2
2023-03-18T05:57:11.188Z,981.3
2023-03-18T05:59:12.894Z,981.1
2023-03-18T06:01:14.450Z,981.2
2023-03-18T06:03:16.032Z,981.2
2023-03-18T06:07:19.455Z,981.3
2023-03-18T06:09:21.311Z,981.4
2023-03-18T06:11:22.921Z,981.3
2023-03-18T06:13:24.859Z,981.3
2023-03-18T06:15:26.421Z,981.3
2023-03-18T06:17:27.471Z,981.3
2023-03-18T06:19:28.821Z,981.3
2023-03-18T06:21:30.659Z,981.3
2023-03-18T06:23:32.379Z,981.3
2023-03-18T06:25:33.660Z,981.2
2023-03-18T06:27:35.191Z,981.3
2023-03-18T06:29:36.357Z,981.3
2023-03-18T06:31:37.698Z,981.3
2023-03-18T06:33:39.343Z,981.3
2023-03-18T06:35:41.550Z,981.3
2023-03-18T06:37:43.102Z,981.3
2023-03-18T06:39:44.313Z,981.3
2023-03-18T06:41:45.413Z,981.3
2023-03-18T06:43:47.193Z,981.3
2023-03-18T06:45:48.251Z,981.3
2023-03-18T06:49:50.450Z,981.4
2023-03-18T06:51:52.300Z,981.4
2023-03-18T06:53:53.760Z,981.3
2023-03-18T06:55:55.480Z,981.4
2023-03-18T06:59:58.641Z,981.3
2023-03-18T07:02:00.599Z,981.4
2023-03-18T07:04:01.984Z,981.5
2023-03-18T07:06:02.989Z,981.4
2023-03-18T07:08:03.990Z,981.5
2023-03-18T07:10:05.593Z,981.5
2023-03-18T07:12:06.815Z,981.5
2023-03-18T07:14:08.016Z,981.5
2023-03-18T07:16:08.969Z,981.5
2023-03-18T07:18:12.089Z,981.5
2023-03-18T07:20:12.180Z,981.6
2023-03-18T07:22:13.217Z,981.5
2023-03-18T07:24:14.791Z,981.6
2023-03-18T07:26:16.396Z,981.5
2023-03-18T07:28:18.201Z,981.6
2023-03-18T07:30:19.728Z,981.6
2023-03-18T07:32:21.003Z,981.7
2023-03-18T07:34:22.171Z,981.7
2023-03-18T07:36:23.300Z,981.7
2023-03-18T07:38:24.686Z,981.7
2023-03-18T07:40:25.583Z,981.8
2023-03-18T07:42:27.378Z,981.7
2023-03-18T07:44:28.876Z,981.8
2023-03-18T07:46:30.297Z,981.7
2023-03-18T07:48:31.421Z,981.8
2023-03-18T07:50:32.666Z,981.6
2023-03-18T07:52:34.134Z,981.6
2023-03-18T07:54:35.315Z,981.7
2023-03-18T07:56:36.414Z,981.7
2023-03-18T07:58:37.272Z,981.6
2023-03-18T08:00:38.667Z,981.5
2023-03-18T08:04:41.348Z,981.6
2023-03-18T08:06:42.593Z,981.5
2023-03-18T08:08:44.257Z,981.6
2023-03-18T08:10:45.223Z,981.6
2023-03-18T08:12:52.875Z,981.6
2023-03-18T08:14:48.132Z,981.6
2023-03-18T08:16:49.087Z,981.7
2023-03-18T08:18:50.183Z,981.5
2023-03-18T08:20:51.746Z,981.7
2023-03-18T08:22:53.102Z,981.6
2023-03-18T08:24:54.158Z,981.7
2023-03-18T08:26:55.036Z,981.7
2023-03-18T08:30:57.476Z,981.7
2023-03-18T08:32:59.071Z,981.7
2023-03-18T08:35:00.391Z,981.7
2023-03-18T08:37:01.985Z,981.6
2023-03-18T08:41:04.509Z,981.7
2023-03-18T08:43:06.013Z,981.6
2023-03-18T08:45:07.163Z,981.6
2023-03-18T08:47:08.246Z,981.6
2023-03-18T08:49:09.431Z,981.6
2023-03-18T08:51:11.111Z,981.6
2023-03-18T08:53:12.041Z,981.6
2023-03-18T08:55:13.244Z,981.6
2023-03-18T08:57:14.848Z,981.6
2023-03-18T08:59:16.338Z,981.6
2023-03-18T09:01:17.296Z,981.7
2023-03-18T09:03:18.187Z,981.6
2023-03-18T09:05:18.964Z,981.7
2023-03-18T09:07:20.632Z,981.7
2023-03-18T09:09:24.576Z,981.7
2023-03-18T09:11:23.020Z,981.7
2023-03-18T09:13:24.506Z,981.6
2023-03-18T09:15:25.386Z,981.6
2023-03-18T09:17:39.292Z,981.6
2023-03-18T09:19:27.598Z,981.7
2023-03-18T09:21:29.809Z,981.7
2023-03-18T09:23:30.637Z,981.6
2023-03-18T09:25:32.106Z,981.6
2023-03-18T09:27:33.361Z,981.7
2023-03-18T09:29:34.905Z,981.6
2023-03-18T09:31:35.864Z,981.7
2023-03-18T09:33:36.797Z,981.6
2023-03-18T09:35:37.606Z,981.7
2023-03-18T09:37:39.126Z,981.6
2023-03-18T09:39:40.821Z,981.7
2023-03-18T09:41:42.432Z,981.6
2023-03-18T09:43:43.508Z,981.6
2023-03-18T09:45:44.372Z,981.6
2023-03-18T09:47:46.598Z,981.6
2023-03-18T09:49:48.345Z,981.5
2023-03-18T09:51:49.925Z,981.5
2023-03-18T09:53:51.591Z,981.6
2023-03-18T09:55:52.422Z,981.6
2023-03-18T09:57:53.585Z,981.6
2023-03-18T09:59:55.022Z,981.6
2023-03-18T10:01:56.199Z,981.5
2023-03-18T10:03:57.195Z,981.5
2023-03-18T10:05:58.530Z,981.5
2023-03-18T10:08:00.108Z,981.6
2023-03-18T10:12:02.512Z,981.5
2023-03-18T10:14:04.234Z,981.5
2023-03-18T10:16:05.854Z,981.5
2023-03-18T10:18:07.349Z,981.5
2023-03-18T10:22:09.957Z,981.5
2023-03-18T10:24:10.948Z,981.5
2023-03-18T10:26:11.826Z,981.6
2023-03-18T10:28:13.436Z,981.5
2023-03-18T10:30:14.999Z,981.5
2023-03-18T10:32:16.753Z,981.5
2023-03-18T10:34:18.075Z,981.5
2023-03-18T10:36:19.843Z,981.4
2023-03-18T10:38:21.025Z,981.5
2023-03-18T10:40:21.932Z,981.5
2023-03-18T10:42:23.496Z,981.4
2023-03-18T10:44:25.236Z,981.5
2023-03-18T10:46:26.218Z,981.4
2023-03-18T10:48:27.769Z,981.4
2023-03-18T10:50:28.641Z,981.5
2023-03-18T10:52:30.159Z,981.4
2023-03-18T10:54:31.385Z,981.4
2023-03-18T10:56:32.538Z,981.4
2023-03-18T10:58:34.272Z,981.4
2023-03-18T11:00:36.318Z,981.4
2023-03-18T11:02:37.645Z,981.4
2023-03-18T11:04:38.550Z,981.4
2023-03-18T11:06:39.538Z,981.4
2023-03-18T11:08:41.680Z,981.4
2023-03-18T11:10:43.131Z,981.5
2023-03-18T11:12:44.627Z,981.4
2023-03-18T11:13:28.320Z,981.4
2023-03-18T11:15:29.304Z,981.3
2023-03-18T11:17:30.381Z,981.4
2023-03-18T11:21:32.766Z,981.4
2023-03-18T11:23:34.046Z,981.3
2023-03-18T11:25:35.244Z,981.4
2023-03-18T11:27:36.192Z,981.3
2023-03-18T11:29:37.649Z,981.2
2023-03-18T11:31:38.798Z,981.3
2023-03-18T11:33:39.963Z,981.3
2023-03-18T11:35:41.553Z,981.1
2023-03-18T11:37:42.946Z,981.2
2023-03-18T11:39:44.023Z,981.1
2023-03-18T11:41:45.602Z,981.1
2023-03-18T11:43:47.013Z,981
2023-03-18T11:45:48.497Z,981
2023-03-18T11:47:49.750Z,981
2023-03-18T11:49:51.478Z,981
2023-03-18T11:51:52.559Z,981
2023-03-18T11:53:54.360Z,981
2023-03-18T11:55:55.429Z,981
2023-03-18T11:57:56.692Z,981
2023-03-18T11:59:57.767Z,981
2023-03-18T12:01:59.521Z,980.9
2023-03-18T12:04:00.746Z,980.9
2023-03-18T12:06:02.023Z,981
2023-03-18T12:08:02.889Z,981
2023-03-18T12:10:04.614Z,980.9
2023-03-18T12:12:05.479Z,980.9
2023-03-18T12:14:07.147Z,980.9
2023-03-18T12:16:08.782Z,980.9
2023-03-18T12:18:10.433Z,980.7
2023-03-18T12:20:11.660Z,980.8
2023-03-18T12:22:13.003Z,980.8
2023-03-18T12:24:14.760Z,980.8
2023-03-18T12:26:16.004Z,980.9
2023-03-18T12:30:18.370Z,980.8
2023-03-18T12:32:19.672Z,980.8
2023-03-18T12:34:20.800Z,980.7
2023-03-18T12:36:22.004Z,980.7
2023-03-18T12:38:23.235Z,980.8
2023-03-18T12:40:24.879Z,980.7
2023-03-18T12:42:26.361Z,980.7
2023-03-18T12:44:27.794Z,980.7
2023-03-18T12:46:28.860Z,980.6
2023-03-18T12:48:44.336Z,980.6
2023-03-18T12:50:32.643Z,980.6
2023-03-18T12:52:34.124Z,980.6
2023-03-18T12:54:35.645Z,980.6
2023-03-18T12:56:36.667Z,980.6
2023-03-18T12:58:37.545Z,980.7
2023-03-18T13:00:39.259Z,980.7
2023-03-18T13:02:40.923Z,980.6
2023-03-18T13:04:41.854Z,980.6
2023-03-18T13:06:42.683Z,980.6
2023-03-18T13:08:44.329Z,980.6
2023-03-18T13:10:46.093Z,980.5
2023-03-18T13:12:47.552Z,980.6
2023-03-18T13:14:48.971Z,980.5
2023-03-18T13:18:51.597Z,980.5
2023-03-18T13:20:52.610Z,980.4
2023-03-18T13:22:53.492Z,980.4
2023-03-18T13:24:55.263Z,980.4
2023-03-18T13:26:56.898Z,980.5
2023-03-18T13:28:58.560Z,980.4
2023-03-18T13:30:59.507Z,980.4
2023-03-18T13:33:01.117Z,980.4
2023-03-18T13:35:02.561Z,980.3
2023-03-18T13:37:03.824Z,980.3
2023-03-18T13:39:04.932Z,980.3
2023-03-18T13:41:06.265Z,980.2
2023-03-18T13:43:07.714Z,980.3
2023-03-18T13:45:08.690Z,980.3
2023-03-18T13:47:09.863Z,980.2
2023-03-18T13:49:11.033Z,980.2
2023-03-18T13:51:12.362Z,980.2
2023-03-18T13:53:13.901Z,980.2
2023-03-18T13:55:15.051Z,980.2
2023-03-18T13:57:16.667Z,980.2
2023-03-18T13:59:17.466Z,980
2023-03-18T14:01:18.589Z,980
2023-03-18T14:03:19.615Z,980.1
2023-03-18T14:05:20.927Z,980.1
2023-03-18T14:07:21.754Z,980.1
2023-03-18T14:09:22.763Z,980.2
2023-03-18T14:11:24.054Z,980.2
2023-03-18T14:13:25.353Z,980.1
2023-03-18T14:15:26.738Z,980.2
2023-03-18T14:17:27.746Z,980.1
2023-03-18T14:19:28.917Z,980.1
2023-03-18T14:21:30.361Z,980.1
2023-03-18T14:23:31.635Z,980
2023-03-18T14:25:32.696Z,980
2023-03-18T14:27:33.616Z,980.1
2023-03-18T14:29:34.812Z,980.1
2023-03-18T14:31:36.359Z,980.1
2023-03-18T14:33:37.753Z,980.1
2023-03-18T14:35:39.287Z,980.1
2023-03-18T14:37:40.914Z,980.1
2023-03-18T14:39:42.677Z,980.1
2023-03-18T14:43:44.974Z,980
2023-03-18T14:45:46.077Z,980.1
2023-03-18T14:47:47.291Z,980
2023-03-18T14:49:48.234Z,980.1
2023-03-18T14:51:49.201Z,980
2023-03-18T14:53:50.540Z,979.9
2023-03-18T14:55:51.799Z,979.9
2023-03-18T14:59:55.178Z,979.9
2023-03-18T15:02:05.507Z,979.8
2023-03-18T15:03:57.299Z,979.8
2023-03-18T15:05:58.935Z,979.8
2023-03-18T15:07:59.972Z,979.8
2023-03-18T15:10:01.414Z,979.8
2023-03-18T15:12:02.285Z,979.8
2023-03-18T15:14:03.640Z,979.8
2023-03-18T15:16:04.648Z,979.9
2023-03-18T15:18:06.333Z,979.9
2023-03-18T15:20:07.872Z,979.9
2023-03-18T15:22:09.133Z,979.8
2023-03-18T15:24:10.162Z,979.8
2023-03-18T15:26:11.053Z,979.8
2023-03-18T15:28:12.623Z,979.8
2023-03-18T15:30:14.439Z,979.8
2023-03-18T15:32:15.456Z,979.8
2023-03-18T15:34:16.705Z,979.7
2023-03-18T15:36:17.621Z,979.8
2023-03-18T15:38:18.778Z,979.8
2023-03-18T15:40:20.083Z,979.8
2023-03-18T15:42:21.861Z,979.8
2023-03-18T15:44:23.198Z,979.8
2023-03-18T15:46:25.059Z,979.8
2023-03-18T15:48:26.189Z,979.8
2023-03-18T15:50:27.058Z,979.8
2023-03-18T15:52:28.590Z,979.8
2023-03-18T15:54:29.673Z,979.8
2023-03-18T15:56:30.758Z,979.8
2023-03-18T15:58:32.572Z,979.8
2023-03-18T16:00:33.666Z,979.9
2023-03-18T16:02:35.021Z,979.9
2023-03-18T16:04:36.405Z,979.8
2023-03-18T16:06:38.034Z,979.8
2023-03-18T16:08:39.285Z,979.9
2023-03-18T16:10:40.810Z,979.9
2023-03-18T16:12:42.044Z,979.8
2023-03-18T16:14:43.763Z,979.8
2023-03-18T16:16:44.759Z,979.8
2023-03-18T16:18:46.277Z,979.8
2023-03-18T16:20:47.184Z,979.9
2023-03-18T16:24:50.215Z,979.9
2023-03-18T16:26:51.902Z,979.9
2023-03-18T16:28:53.573Z,979.9
2023-03-18T16:30:54.948Z,979.9
2023-03-18T16:34:57.528Z,979.8
2023-03-18T16:36:58.829Z,979.9
2023-03-18T16:38:59.993Z,980
2023-03-18T16:41:01.751Z,979.9
2023-03-18T16:43:03.614Z,979.9
2023-03-18T16:45:05.030Z,980
2023-03-18T16:47:06.335Z,980.1
2023-03-18T16:49:08.020Z,980
2023-03-18T16:51:09.513Z,980
2023-03-18T16:53:10.373Z,980
2023-03-18T16:55:11.800Z,980
2023-03-18T16:57:13.447Z,980
2023-03-18T16:59:14.908Z,980.1
2023-03-18T17:01:16.920Z,980.1
2023-03-18T17:03:17.658Z,980.1
2023-03-18T17:07:21.164Z,980
2023-03-18T17:09:22.933Z,980.1
2023-03-18T17:11:24.320Z,980.1
2023-03-18T17:13:26.808Z,980.1
2023-03-18T17:17:29.176Z,980.1
2023-03-18T17:19:30.190Z,980.1
2023-03-18T17:23:32.515Z,980.2
2023-03-18T17:25:33.984Z,980.2
2023-03-18T17:27:35.704Z,980.2
2023-03-18T17:29:37.162Z,980.3
2023-03-18T17:31:38.868Z,980.3
2023-03-18T17:33:40.053Z,980.3
2023-03-18T17:35:40.936Z,980.3
2023-03-18T17:37:42.598Z,980.4
2023-03-18T17:39:44.112Z,980.4
2023-03-18T17:41:45.582Z,980.4
2023-03-18T17:43:46.500Z,980.4
2023-03-18T17:45:47.980Z,980.4
2023-03-18T17:47:49.430Z,980.4
2023-03-18T17:49:50.761Z,980.4
2023-03-18T17:51:52.531Z,980.5
2023-03-18T17:53:54.009Z,980.4
2023-03-18T17:55:55.193Z,980.4
2023-03-18T17:57:57.032Z,980.4
2023-03-18T18:00:42.186Z,980.4
2023-03-18T18:02:43.746Z,980.4
2023-03-18T18:04:45.292Z,980.4
2023-03-18T18:06:48.067Z,980.4
2023-03-18T18:08:48.291Z,980.4
2023-03-18T18:10:50.027Z,980.4
2023-03-18T18:12:51.772Z,980.4
2023-03-18T18:16:54.455Z,980.5
2023-03-18T18:18:55.692Z,980.4
2023-03-18T18:20:57.415Z,980.4
2023-03-18T18:22:58.915Z,980.4
2023-03-18T18:25:00.052Z,980.5
2023-03-18T18:27:01.483Z,980.5
2023-03-18T18:29:03.195Z,980.5
2023-03-18T18:31:04.814Z,980.5
2023-03-18T18:33:06.239Z,980.5
2023-03-18T18:35:07.877Z,980.5
2023-03-18T18:37:09.564Z,980.5
2023-03-18T18:39:10.738Z,980.6
2023-03-18T18:41:11.953Z,980.5
2023-03-18T18:43:13.270Z,980.5
2023-03-18T18:45:15.085Z,980.5
2023-03-18T18:47:16.016Z,980.4
2023-03-18T18:49:17.742Z,980.5
2023-03-18T18:51:19.310Z,980.5
2023-03-18T18:53:20.275Z,980.5
2023-03-18T18:55:21.184Z,980.6
2023-03-18T18:57:22.628Z,980.6
2023-03-18T18:59:23.684Z,980.6
2023-03-18T19:01:24.950Z,980.5
2023-03-18T19:03:26.556Z,980.5
2023-03-18T19:05:27.719Z,980.4
2023-03-18T19:07:29.502Z,980.5
2023-03-18T19:09:30.680Z,980.4
2023-03-18T19:11:31.620Z,980.5
2023-03-18T19:13:32.612Z,980.6
2023-03-18T19:15:34.520Z,980.6
2023-03-18T19:17:35.169Z,980.7
2023-03-18T19:19:36.817Z,980.6
2023-03-18T19:21:38.037Z,980.7
2023-03-18T19:23:39.452Z,980.6
2023-03-18T19:25:40.740Z,980.8
2023-03-18T19:27:41.790Z,980.7
2023-03-18T19:29:43.676Z,980.7
2023-03-18T19:31:45.088Z,980.8
2023-03-18T19:35:48.158Z,980.8
2023-03-18T19:37:49.225Z,980.8
2023-03-18T19:41:52.047Z,980.6
2023-03-18T19:43:53.601Z,980.7
2023-03-18T19:45:55.228Z,980.7
2023-03-18T19:47:56.817Z,980.7
2023-03-18T19:49:58.416Z,980.7
2023-03-18T19:52:00.115Z,980.8
2023-03-18T19:54:01.617Z,980.8
2023-03-18T19:56:02.705Z,980.9
2023-03-18T19:58:04.458Z,980.8
2023-03-18T20:00:05.641Z,980.8
2023-03-18T20:02:06.781Z,980.9
2023-03-18T20:04:08.595Z,980.9
2023-03-18T20:06:10.400Z,980.8
2023-03-18T20:08:11.842Z,980.9
2023-03-18T20:10:13.031Z,980.9
2023-03-18T20:12:14.720Z,980.9
2023-03-18T20:14:16.636Z,980.9
2023-03-18T20:16:17.993Z,980.9
2023-03-18T20:18:19.416Z,981.1
2023-03-18T20:20:20.736Z,981
2023-03-18T20:24:23.504Z,981.1
2023-03-18T20:26:25.289Z,981.1
2023-03-18T20:28:26.926Z,981.1
2023-03-18T20:30:28.098Z,981
2023-03-18T20:32:29.102Z,980.9
2023-03-18T20:34:30.706Z,980.9
2023-03-18T20:36:32.222Z,981.1
2023-03-18T20:38:33.864Z,981.1
2023-03-18T20:40:35.494Z,981.1
2023-03-18T20:42:36.603Z,981
2023-03-18T20:44:38.385Z,981.1
2023-03-18T20:46:40.086Z,981
2023-03-18T20:48:41.185Z,981.1
2023-03-18T20:50:42.284Z,981.1
2023-03-18T20:52:44.246Z,981.1
2023-03-18T20:54:45.966Z,981.1
2023-03-18T20:56:47.006Z,981.1
2023-03-18T20:58:48.820Z,981.1
2023-03-18T21:00:50.312Z,981.1
2023-03-18T21:02:51.405Z,981.1
2023-03-18T21:04:52.527Z,981.1
2023-03-18T21:06:53.821Z,981.1
2023-03-18T21:08:55.328Z,981.2
2023-03-18T21:10:58.536Z,981.2
2023-03-18T21:12:59.149Z,981.1
2023-03-18T21:15:00.261Z,981
2023-03-18T21:17:01.961Z,981.2
2023-03-18T21:19:03.279Z,981.1
2023-03-18T21:23:06.438Z,981.3
2023-03-18T21:25:08.964Z,981.3
2023-03-18T21:27:09.269Z,981.2
2023-03-18T21:29:10.724Z,981.3
2023-03-18T21:31:12.603Z,981.3
2023-03-18T21:33:13.753Z,981.2
2023-03-18T21:35:15.067Z,981.2
2023-03-18T21:37:16.998Z,981.3
2023-03-18T21:39:18.462Z,981.2
2023-03-18T21:41:19.613Z,981.3
2023-03-18T21:43:20.683Z,981.3
2023-03-18T21:45:21.743Z,981.2
2023-03-18T21:49:24.359Z,981.3
2023-03-18T21:51:37.851Z,981.2
2023-03-18T21:53:26.795Z,981.2
2023-03-18T21:55:27.863Z,981.2
2023-03-18T21:59:31.051Z,981.2
2023-03-18T22:01:32.168Z,981.2
2023-03-18T22:03:33.441Z,981.2
2023-03-18T22:05:35.194Z,981.1
2023-03-18T22:07:35.999Z,981.2
2023-03-18T22:09:37.531Z,981.1
2023-03-18T22:11:38.885Z,981.2
2023-03-18T22:13:40.762Z,981.2
2023-03-18T22:15:42.216Z,981.1
2023-03-18T22:17:43.388Z,981.2
2023-03-18T22:19:45.121Z,981.1
2023-03-18T22:21:46.744Z,981.2
2023-03-18T22:23:48.047Z,981.2
2023-03-18T22:25:49.367Z,981.2
2023-03-18T22:27:50.482Z,981.2
2023-03-18T22:29:52.137Z,981.2
2023-03-18T22:31:53.461Z,981.2
2023-03-18T22:33:54.961Z,981.2
2023-03-18T22:35:56.212Z,981.3
2023-03-18T22:37:57.674Z,981.3
2023-03-18T22:40:00.822Z,981.3
2023-03-18T22:42:00.411Z,981.3
2023-03-18T22:44:01.487Z,981.3
2023-03-18T22:46:02.512Z,981.3
2023-03-18T22:48:03.878Z,981.3
2023-03-18T22:50:05.599Z,981.3
2023-03-18T22:52:06.533Z,981.3
2023-03-18T22:54:07.752Z,981.3
2023-03-18T22:56:08.735Z,981.4
2023-03-18T22:58:09.798Z,981.4
2023-03-18T23:00:11.501Z,981.3
2023-03-18T23:04:15.042Z,981.3
2023-03-18T23:06:16.968Z,981.4
2023-03-18T23:08:18.191Z,981.3
2023-03-18T23:10:20.006Z,981.3
2023-03-18T23:12:21.527Z,981.3
2023-03-18T23:14:22.852Z,981.4
2023-03-18T23:16:23.870Z,981.4
2023-03-18T23:18:25.204Z,981.4
2023-03-18T23:20:26.150Z,981.5
2023-03-18T23:22:27.725Z,981.5
2023-03-18T23:24:29.300Z,981.4
2023-03-18T23:26:30.824Z,981.5
2023-03-18T23:30:34.019Z,981.4
2023-03-18T23:32:35.968Z,981.5
2023-03-18T23:34:37.187Z,981.4
2023-03-18T23:36:38.425Z,981.4
2023-03-18T23:38:39.410Z,981.5
2023-03-18T23:40:41.336Z,981.5
2023-03-18T23:42:43.216Z,981.5
2023-03-18T23:46:45.885Z,981.5
2023-03-18T23:48:47.128Z,981.4
2023-03-18T23:50:48.322Z,981.5
2023-03-18T23:52:49.419Z,981.5
2023-03-18T23:54:50.488Z,981.6
2023-03-18T23:56:51.929Z,981.5
2023-03-18T23:58:53.240Z,981.4
